sensor_id;sensor_type;location;lat;lon;timestamp;temperature;humidity
3275;DHT22;1649;53.672;10.064;2022-08-05T00:00:32;19.80;99.90
3275;DHT22;1649;53.672;10.064;2022-08-05T00:02:58;19.70;99.90
3275;DHT22;1649;53.672;10.064;2022-08-05T00:05:23;19.60;99.90
3275;DHT22;1649;53.672;10.064;2022-08-05T00:07:49;19.70;99.90
3275;DHT22;1649;53.672;10.064;2022-08-05T00:10:14;19.50;99.90
3275;DHT22;1649;53.672;10.064;2022-08-05T00:12:40;19.50;99.90
3275;DHT22;1649;53.672;10.064;2022-08-05T00:15:06;19.60;99.90
3275;DHT22;1649;53.672;10.064;2022-08-05T00:17:32;19.60;99.90
3275;DHT22;1649;53.672;10.064;2022-08-05T00:19:57;19.60;99.90
3275;DHT22;1649;53.672;10.064;2022-08-05T00:22:22;19.60;99.90
3275;DHT22;1649;53.672;10.064;2022-08-05T00:24:48;19.60;99.90
3275;DHT22;1649;53.672;10.064;2022-08-05T00:27:13;19.60;99.90
3275;DHT22;1649;53.672;10.064;2022-08-05T00:29:39;19.50;99.90
3275;DHT22;1649;53.672;10.064;2022-08-05T00:32:05;19.50;99.90
3275;DHT22;1649;53.672;10.064;2022-08-05T00:34:30;19.40;99.90
3275;DHT22;1649;53.672;10.064;2022-08-05T00:36:56;19.40;99.90
3275;DHT22;1649;53.672;10.064;2022-08-05T00:39:21;19.30;99.90
3275;DHT22;1649;53.672;10.064;2022-08-05T00:41:47;19.30;99.90
3275;DHT22;1649;53.672;10.064;2022-08-05T00:44:13;19.10;99.90
3275;DHT22;1649;53.672;10.064;2022-08-05T00:46:38;19.20;99.90
3275;DHT22;1649;53.672;10.064;2022-08-05T00:49:04;19.10;99.90
3275;DHT22;1649;53.672;10.064;2022-08-05T00:51:30;19.00;99.90
3275;DHT22;1649;53.672;10.064;2022-08-05T00:53:55;19.10;99.90
3275;DHT22;1649;53.672;10.064;2022-08-05T00:56:21;19.10;99.90
3275;DHT22;1649;53.672;10.064;2022-08-05T00:58:47;18.90;99.90
3275;DHT22;1649;53.672;10.064;2022-08-05T01:01:12;18.70;99.90
3275;DHT22;1649;53.672;10.064;2022-08-05T01:03:40;18.60;99.90
3275;DHT22;1649;53.672;10.064;2022-08-05T01:06:06;18.70;99.90
3275;DHT22;1649;53.672;10.064;2022-08-05T01:08:33;18.70;99.90
3275;DHT22;1649;53.672;10.064;2022-08-05T01:11:02;18.60;99.90
3275;DHT22;1649;53.672;10.064;2022-08-05T01:13:38;18.50;99.90
3275;DHT22;1649;53.672;10.064;2022-08-05T01:16:09;18.50;99.90
3275;DHT22;1649;53.672;10.064;2022-08-05T01:18:41;18.50;99.90
3275;DHT22;1649;53.672;10.064;2022-08-05T01:21:48;18.60;99.90
3275;DHT22;1649;53.672;10.064;2022-08-05T01:27:42;18.60;99.90
3275;DHT22;1649;53.672;10.064;2022-08-05T01:30:11;18.60;99.90
3275;DHT22;1649;53.672;10.064;2022-08-05T01:32:40;18.60;99.90
3275;DHT22;1649;53.672;10.064;2022-08-05T01:35:10;18.60;99.90
3275;DHT22;1649;53.672;10.064;2022-08-05T01:37:46;18.50;99.90
3275;DHT22;1649;53.672;10.064;2022-08-05T01:40:14;18.60;99.90
3275;DHT22;1649;53.672;10.064;2022-08-05T01:42:43;18.70;99.90
3275;DHT22;1649;53.672;10.064;2022-08-05T01:45:12;18.80;99.90
3275;DHT22;1649;53.672;10.064;2022-08-05T01:47:39;18.90;99.90
3275;DHT22;1649;53.672;10.064;2022-08-05T01:50:27;18.90;99.90
3275;DHT22;1649;53.672;10.064;2022-08-05T01:52:56;18.90;99.90
3275;DHT22;1649;53.672;10.064;2022-08-05T01:55:23;18.90;99.90
3275;DHT22;1649;53.672;10.064;2022-08-05T01:57:53;18.80;99.90
3275;DHT22;1649;53.672;10.064;2022-08-05T02:00:19;18.70;99.90
3275;DHT22;1649;53.672;10.064;2022-08-05T02:02:51;18.80;99.90
3275;DHT22;1649;53.672;10.064;2022-08-05T02:05:20;18.70;99.90
3275;DHT22;1649;53.672;10.064;2022-08-05T02:07:47;18.50;99.90
3275;DHT22;1649;53.672;10.064;2022-08-05T02:10:13;18.60;99.90
3275;DHT22;1649;53.672;10.064;2022-08-05T02:12:59;18.70;99.90
3275;DHT22;1649;53.672;10.064;2022-08-05T02:15:28;18.70;99.90
3275;DHT22;1649;53.672;10.064;2022-08-05T02:18:10;18.60;99.90
3275;DHT22;1649;53.672;10.064;2022-08-05T02:21:04;18.60;99.90
3275;DHT22;1649;53.672;10.064;2022-08-05T02:23:32;18.50;99.90
3275;DHT22;1649;53.672;10.064;2022-08-05T02:26:04;18.50;99.90
3275;DHT22;1649;53.672;10.064;2022-08-05T02:28:34;18.50;99.90
3275;DHT22;1649;53.672;10.064;2022-08-05T02:31:06;18.70;99.90
3275;DHT22;1649;53.672;10.064;2022-08-05T02:33:37;18.70;99.90
3275;DHT22;1649;53.672;10.064;2022-08-05T02:36:05;18.70;99.90
3275;DHT22;1649;53.672;10.064;2022-08-05T02:38:33;18.80;99.90
3275;DHT22;1649;53.672;10.064;2022-08-05T02:41:00;18.80;99.90
3275;DHT22;1649;53.672;10.064;2022-08-05T02:43:28;18.60;99.90
3275;DHT22;1649;53.672;10.064;2022-08-05T02:45:55;18.60;99.90
3275;DHT22;1649;53.672;10.064;2022-08-05T02:48:22;18.50;99.90
3275;DHT22;1649;53.672;10.064;2022-08-05T02:50:50;18.30;99.90
3275;DHT22;1649;53.672;10.064;2022-08-05T02:53:16;18.20;99.90
3275;DHT22;1649;53.672;10.064;2022-08-05T02:55:49;18.00;99.90
3275;DHT22;1649;53.672;10.064;2022-08-05T02:58:15;17.80;99.90
3275;DHT22;1649;53.672;10.064;2022-08-05T03:00:43;17.60;99.90
3275;DHT22;1649;53.672;10.064;2022-08-05T03:03:11;17.40;99.90
3275;DHT22;1649;53.672;10.064;2022-08-05T03:05:39;17.40;99.90
3275;DHT22;1649;53.672;10.064;2022-08-05T03:08:05;17.40;99.90
3275;DHT22;1649;53.672;10.064;2022-08-05T03:10:31;17.30;99.90
3275;DHT22;1649;53.672;10.064;2022-08-05T03:12:57;17.20;99.90
3275;DHT22;1649;53.672;10.064;2022-08-05T03:15:22;17.20;99.90
3275;DHT22;1649;53.672;10.064;2022-08-05T03:17:48;17.10;99.90
3275;DHT22;1649;53.672;10.064;2022-08-05T03:20:13;17.20;99.90
3275;DHT22;1649;53.672;10.064;2022-08-05T03:22:39;17.20;99.90
3275;DHT22;1649;53.672;10.064;2022-08-05T03:25:05;17.10;99.90
3275;DHT22;1649;53.672;10.064;2022-08-05T03:27:30;17.20;99.90
3275;DHT22;1649;53.672;10.064;2022-08-05T03:29:57;17.10;99.90
3275;DHT22;1649;53.672;10.064;2022-08-05T03:32:23;17.10;99.90
3275;DHT22;1649;53.672;10.064;2022-08-05T03:34:49;17.10;99.90
3275;DHT22;1649;53.672;10.064;2022-08-05T03:37:15;17.00;99.90
3275;DHT22;1649;53.672;10.064;2022-08-05T03:39:54;16.90;99.90
3275;DHT22;1649;53.672;10.064;2022-08-05T03:42:21;16.90;99.90
3275;DHT22;1649;53.672;10.064;2022-08-05T03:44:46;16.90;99.90
3275;DHT22;1649;53.672;10.064;2022-08-05T03:47:12;16.90;99.90
3275;DHT22;1649;53.672;10.064;2022-08-05T03:49:37;16.90;99.90
3275;DHT22;1649;53.672;10.064;2022-08-05T03:52:06;17.00;99.90
3275;DHT22;1649;53.672;10.064;2022-08-05T03:54:38;17.00;99.90
3275;DHT22;1649;53.672;10.064;2022-08-05T03:57:09;17.00;99.90
3275;DHT22;1649;53.672;10.064;2022-08-05T03:59:40;16.90;99.90
3275;DHT22;1649;53.672;10.064;2022-08-05T04:02:07;16.80;99.90
3275;DHT22;1649;53.672;10.064;2022-08-05T04:04:35;16.80;99.90
3275;DHT22;1649;53.672;10.064;2022-08-05T04:07:02;16.90;99.90
3275;DHT22;1649;53.672;10.064;2022-08-05T04:09:30;16.90;99.90
3275;DHT22;1649;53.672;10.064;2022-08-05T04:11:56;17.00;99.90
3275;DHT22;1649;53.672;10.064;2022-08-05T04:14:23;17.00;99.90
3275;DHT22;1649;53.672;10.064;2022-08-05T04:16:49;17.00;99.90
3275;DHT22;1649;53.672;10.064;2022-08-05T04:19:15;17.00;99.90
3275;DHT22;1649;53.672;10.064;2022-08-05T04:21:40;17.10;99.90
3275;DHT22;1649;53.672;10.064;2022-08-05T04:24:06;17.10;99.90
3275;DHT22;1649;53.672;10.064;2022-08-05T04:26:32;17.20;99.90
3275;DHT22;1649;53.672;10.064;2022-08-05T04:28:58;17.10;99.90
3275;DHT22;1649;53.672;10.064;2022-08-05T04:31:23;17.20;99.90
3275;DHT22;1649;53.672;10.064;2022-08-05T04:33:49;17.30;99.90
3275;DHT22;1649;53.672;10.064;2022-08-05T04:36:14;17.30;99.90
3275;DHT22;1649;53.672;10.064;2022-08-05T04:38:43;17.40;99.90
3275;DHT22;1649;53.672;10.064;2022-08-05T04:41:09;17.40;99.90
3275;DHT22;1649;53.672;10.064;2022-08-05T04:43:35;17.40;99.90
3275;DHT22;1649;53.672;10.064;2022-08-05T04:46:00;17.40;99.90
3275;DHT22;1649;53.672;10.064;2022-08-05T04:48:28;17.30;99.90
3275;DHT22;1649;53.672;10.064;2022-08-05T04:50:54;17.40;99.90
3275;DHT22;1649;53.672;10.064;2022-08-05T04:53:19;17.30;99.90
3275;DHT22;1649;53.672;10.064;2022-08-05T04:55:45;17.20;99.90
3275;DHT22;1649;53.672;10.064;2022-08-05T04:58:13;17.20;99.90
3275;DHT22;1649;53.672;10.064;2022-08-05T05:00:39;17.30;99.90
3275;DHT22;1649;53.672;10.064;2022-08-05T05:03:06;17.30;99.90
3275;DHT22;1649;53.672;10.064;2022-08-05T05:05:32;17.30;99.90
3275;DHT22;1649;53.672;10.064;2022-08-05T05:08:03;17.40;99.90
3275;DHT22;1649;53.672;10.064;2022-08-05T05:10:30;17.40;99.90
3275;DHT22;1649;53.672;10.064;2022-08-05T05:12:56;17.50;99.90
3275;DHT22;1649;53.672;10.064;2022-08-05T05:15:22;17.50;99.90
3275;DHT22;1649;53.672;10.064;2022-08-05T05:17:48;17.40;99.90
3275;DHT22;1649;53.672;10.064;2022-08-05T05:20:13;17.30;99.90
3275;DHT22;1649;53.672;10.064;2022-08-05T05:22:39;17.30;99.90
3275;DHT22;1649;53.672;10.064;2022-08-05T05:25:06;17.30;99.90
3275;DHT22;1649;53.672;10.064;2022-08-05T05:27:34;17.30;99.90
3275;DHT22;1649;53.672;10.064;2022-08-05T05:29:59;17.20;99.90
3275;DHT22;1649;53.672;10.064;2022-08-05T05:32:25;17.30;99.90
3275;DHT22;1649;53.672;10.064;2022-08-05T05:34:51;17.30;99.90
3275;DHT22;1649;53.672;10.064;2022-08-05T05:37:16;17.40;99.90
3275;DHT22;1649;53.672;10.064;2022-08-05T05:39:42;17.50;99.90
3275;DHT22;1649;53.672;10.064;2022-08-05T05:42:08;17.70;99.90
3275;DHT22;1649;53.672;10.064;2022-08-05T05:44:34;17.80;99.90
3275;DHT22;1649;53.672;10.064;2022-08-05T05:46:59;17.80;99.90
3275;DHT22;1649;53.672;10.064;2022-08-05T05:49:25;17.80;99.90
3275;DHT22;1649;53.672;10.064;2022-08-05T05:51:51;17.60;99.90
3275;DHT22;1649;53.672;10.064;2022-08-05T05:54:16;17.60;99.90
3275;DHT22;1649;53.672;10.064;2022-08-05T05:56:42;17.50;99.90
3275;DHT22;1649;53.672;10.064;2022-08-05T05:59:07;17.50;99.90
3275;DHT22;1649;53.672;10.064;2022-08-05T06:01:34;17.40;99.90
3275;DHT22;1649;53.672;10.064;2022-08-05T06:04:00;17.40;99.90
3275;DHT22;1649;53.672;10.064;2022-08-05T06:06:26;17.30;99.90
3275;DHT22;1649;53.672;10.064;2022-08-05T06:08:51;17.40;99.90
3275;DHT22;1649;53.672;10.064;2022-08-05T06:11:17;17.40;99.90
3275;DHT22;1649;53.672;10.064;2022-08-05T06:13:42;17.40;99.90
3275;DHT22;1649;53.672;10.064;2022-08-05T06:16:08;17.50;99.90
3275;DHT22;1649;53.672;10.064;2022-08-05T06:18:33;17.40;99.90
3275;DHT22;1649;53.672;10.064;2022-08-05T06:20:59;17.50;99.90
3275;DHT22;1649;53.672;10.064;2022-08-05T06:23:24;17.60;99.90
3275;DHT22;1649;53.672;10.064;2022-08-05T06:25:50;17.60;99.90
3275;DHT22;1649;53.672;10.064;2022-08-05T06:28:16;17.70;99.90
3275;DHT22;1649;53.672;10.064;2022-08-05T06:30:41;17.70;99.90
3275;DHT22;1649;53.672;10.064;2022-08-05T06:33:07;17.70;99.90
3275;DHT22;1649;53.672;10.064;2022-08-05T06:35:33;17.70;99.90
3275;DHT22;1649;53.672;10.064;2022-08-05T06:37:58;17.90;99.90
3275;DHT22;1649;53.672;10.064;2022-08-05T06:40:24;18.10;99.90
3275;DHT22;1649;53.672;10.064;2022-08-05T06:42:50;18.30;99.90
3275;DHT22;1649;53.672;10.064;2022-08-05T06:45:16;18.20;99.90
3275;DHT22;1649;53.672;10.064;2022-08-05T06:47:41;18.30;99.90
3275;DHT22;1649;53.672;10.064;2022-08-05T06:50:07;18.40;99.90
3275;DHT22;1649;53.672;10.064;2022-08-05T06:52:33;18.70;99.90
3275;DHT22;1649;53.672;10.064;2022-08-05T06:54:58;18.80;99.90
3275;DHT22;1649;53.672;10.064;2022-08-05T06:57:24;18.90;99.90
3275;DHT22;1649;53.672;10.064;2022-08-05T06:59:49;19.00;99.90
3275;DHT22;1649;53.672;10.064;2022-08-05T07:02:15;19.00;99.90
3275;DHT22;1649;53.672;10.064;2022-08-05T07:04:40;19.20;99.90
3275;DHT22;1649;53.672;10.064;2022-08-05T07:07:06;19.50;99.90
3275;DHT22;1649;53.672;10.064;2022-08-05T07:09:31;19.70;99.90
3275;DHT22;1649;53.672;10.064;2022-08-05T07:11:57;19.80;99.90
3275;DHT22;1649;53.672;10.064;2022-08-05T07:14:22;19.80;99.90
3275;DHT22;1649;53.672;10.064;2022-08-05T07:17:06;19.80;99.90
3275;DHT22;1649;53.672;10.064;2022-08-05T07:19:32;19.90;99.90
3275;DHT22;1649;53.672;10.064;2022-08-05T07:21:58;19.80;99.90
3275;DHT22;1649;53.672;10.064;2022-08-05T07:24:24;19.70;99.90
3275;DHT22;1649;53.672;10.064;2022-08-05T07:26:50;19.60;99.90
3275;DHT22;1649;53.672;10.064;2022-08-05T07:29:15;19.60;99.90
3275;DHT22;1649;53.672;10.064;2022-08-05T07:31:41;19.60;99.90
3275;DHT22;1649;53.672;10.064;2022-08-05T07:34:07;19.40;99.90
3275;DHT22;1649;53.672;10.064;2022-08-05T07:36:33;19.40;99.90
3275;DHT22;1649;53.672;10.064;2022-08-05T07:39:00;19.30;99.90
3275;DHT22;1649;53.672;10.064;2022-08-05T07:41:26;19.20;99.90
3275;DHT22;1649;53.672;10.064;2022-08-05T07:43:53;19.10;99.90
3275;DHT22;1649;53.672;10.064;2022-08-05T07:46:19;19.00;99.90
3275;DHT22;1649;53.672;10.064;2022-08-05T07:48:44;18.90;99.90
3275;DHT22;1649;53.672;10.064;2022-08-05T07:51:10;19.00;99.90
3275;DHT22;1649;53.672;10.064;2022-08-05T07:53:35;18.90;99.90
3275;DHT22;1649;53.672;10.064;2022-08-05T07:56:02;18.70;99.90
3275;DHT22;1649;53.672;10.064;2022-08-05T07:58:28;18.80;99.90
3275;DHT22;1649;53.672;10.064;2022-08-05T08:00:53;18.70;99.90
3275;DHT22;1649;53.672;10.064;2022-08-05T08:03:19;18.70;99.90
3275;DHT22;1649;53.672;10.064;2022-08-05T08:05:45;18.70;99.90
3275;DHT22;1649;53.672;10.064;2022-08-05T08:08:10;18.70;99.90
3275;DHT22;1649;53.672;10.064;2022-08-05T08:10:36;18.60;99.90
3275;DHT22;1649;53.672;10.064;2022-08-05T08:13:02;18.50;99.90
3275;DHT22;1649;53.672;10.064;2022-08-05T08:15:28;18.40;99.90
3275;DHT22;1649;53.672;10.064;2022-08-05T08:17:54;18.30;99.90
3275;DHT22;1649;53.672;10.064;2022-08-05T08:20:23;18.30;99.90
3275;DHT22;1649;53.672;10.064;2022-08-05T08:22:50;18.20;99.90
3275;DHT22;1649;53.672;10.064;2022-08-05T08:25:16;18.20;99.90
3275;DHT22;1649;53.672;10.064;2022-08-05T08:27:43;18.20;99.90
3275;DHT22;1649;53.672;10.064;2022-08-05T08:30:09;18.20;99.90
3275;DHT22;1649;53.672;10.064;2022-08-05T08:32:36;18.10;99.90
3275;DHT22;1649;53.672;10.064;2022-08-05T08:35:01;18.20;99.90
3275;DHT22;1649;53.672;10.064;2022-08-05T08:37:27;18.20;99.90
3275;DHT22;1649;53.672;10.064;2022-08-05T08:39:52;18.10;99.90
3275;DHT22;1649;53.672;10.064;2022-08-05T08:42:18;18.10;99.90
3275;DHT22;1649;53.672;10.064;2022-08-05T08:44:45;18.10;99.90
3275;DHT22;1649;53.672;10.064;2022-08-05T08:47:11;18.20;99.90
3275;DHT22;1649;53.672;10.064;2022-08-05T08:49:39;18.10;99.90
3275;DHT22;1649;53.672;10.064;2022-08-05T08:52:16;18.10;99.90
3275;DHT22;1649;53.672;10.064;2022-08-05T08:54:43;18.00;99.90
3275;DHT22;1649;53.672;10.064;2022-08-05T08:57:09;18.00;99.90
3275;DHT22;1649;53.672;10.064;2022-08-05T08:59:36;18.10;99.90
3275;DHT22;1649;53.672;10.064;2022-08-05T09:02:05;18.00;99.90
3275;DHT22;1649;53.672;10.064;2022-08-05T09:04:35;18.00;99.90
3275;DHT22;1649;53.672;10.064;2022-08-05T09:07:05;18.00;99.90
3275;DHT22;1649;53.672;10.064;2022-08-05T09:09:35;18.00;99.90
3275;DHT22;1649;53.672;10.064;2022-08-05T09:12:03;17.80;99.90
3275;DHT22;1649;53.672;10.064;2022-08-05T09:14:31;17.70;99.90
3275;DHT22;1649;53.672;10.064;2022-08-05T09:17:01;17.60;99.90
3275;DHT22;1649;53.672;10.064;2022-08-05T09:19:28;17.70;99.90
3275;DHT22;1649;53.672;10.064;2022-08-05T09:21:53;17.70;99.90
3275;DHT22;1649;53.672;10.064;2022-08-05T09:24:19;17.60;99.90
3275;DHT22;1649;53.672;10.064;2022-08-05T09:26:52;17.70;99.90
3275;DHT22;1649;53.672;10.064;2022-08-05T09:29:20;17.80;99.90
3275;DHT22;1649;53.672;10.064;2022-08-05T09:32:03;17.80;99.90
3275;DHT22;1649;53.672;10.064;2022-08-05T09:37:18;17.90;99.90
3275;DHT22;1649;53.672;10.064;2022-08-05T09:39:43;17.90;99.90
3275;DHT22;1649;53.672;10.064;2022-08-05T09:42:09;18.00;99.90
3275;DHT22;1649;53.672;10.064;2022-08-05T09:44:38;18.00;99.90
3275;DHT22;1649;53.672;10.064;2022-08-05T09:47:11;18.00;99.90
3275;DHT22;1649;53.672;10.064;2022-08-05T09:49:45;18.00;99.90
3275;DHT22;1649;53.672;10.064;2022-08-05T09:52:27;17.90;99.90
3275;DHT22;1649;53.672;10.064;2022-08-05T09:55:03;17.90;99.90
3275;DHT22;1649;53.672;10.064;2022-08-05T09:57:40;18.00;99.90
3275;DHT22;1649;53.672;10.064;2022-08-05T10:00:09;18.10;99.90
3275;DHT22;1649;53.672;10.064;2022-08-05T10:02:40;18.20;99.90
3275;DHT22;1649;53.672;10.064;2022-08-05T10:05:26;18.20;99.90
3275;DHT22;1649;53.672;10.064;2022-08-05T10:07:55;18.30;99.90
3275;DHT22;1649;53.672;10.064;2022-08-05T10:10:30;18.20;99.90
3275;DHT22;1649;53.672;10.064;2022-08-05T10:12:58;18.10;99.90
3275;DHT22;1649;53.672;10.064;2022-08-05T10:15:30;18.10;99.90
3275;DHT22;1649;53.672;10.064;2022-08-05T10:18:14;18.10;99.90
3275;DHT22;1649;53.672;10.064;2022-08-05T10:20:52;18.00;99.90
3275;DHT22;1649;53.672;10.064;2022-08-05T10:23:21;18.10;99.90
3275;DHT22;1649;53.672;10.064;2022-08-05T10:25:47;18.10;99.90
3275;DHT22;1649;53.672;10.064;2022-08-05T10:28:13;18.10;99.90
3275;DHT22;1649;53.672;10.064;2022-08-05T10:30:39;18.10;99.90
3275;DHT22;1649;53.672;10.064;2022-08-05T10:33:05;18.20;99.90
3275;DHT22;1649;53.672;10.064;2022-08-05T10:35:31;18.00;99.90
3275;DHT22;1649;53.672;10.064;2022-08-05T10:37:57;17.90;99.90
3275;DHT22;1649;53.672;10.064;2022-08-05T10:45:38;17.80;99.90
3275;DHT22;1649;53.672;10.064;2022-08-05T10:48:43;17.70;99.90
3275;DHT22;1649;53.672;10.064;2022-08-05T10:51:14;17.70;99.90
3275;DHT22;1649;53.672;10.064;2022-08-05T10:56:20;17.60;99.90
3275;DHT22;1649;53.672;10.064;2022-08-05T10:59:01;17.70;99.90
3275;DHT22;1649;53.672;10.064;2022-08-05T11:01:34;17.70;99.90
3275;DHT22;1649;53.672;10.064;2022-08-05T11:04:20;17.60;99.90
3275;DHT22;1649;53.672;10.064;2022-08-05T11:09:48;17.50;99.90
3275;DHT22;1649;53.672;10.064;2022-08-05T11:15:07;17.40;99.90
3275;DHT22;1649;53.672;10.064;2022-08-05T11:17:35;17.50;99.90
3275;DHT22;1649;53.672;10.064;2022-08-05T11:20:05;17.40;99.90
3275;DHT22;1649;53.672;10.064;2022-08-05T11:22:47;17.30;99.90
3275;DHT22;1649;53.672;10.064;2022-08-05T11:25:32;17.20;99.90
3275;DHT22;1649;53.672;10.064;2022-08-05T11:35:55;17.00;99.90
3275;DHT22;1649;53.672;10.064;2022-08-05T11:43:32;16.90;99.90
3275;DHT22;1649;53.672;10.064;2022-08-05T11:45:58;16.90;99.90
3275;DHT22;1649;53.672;10.064;2022-08-05T11:48:25;16.80;99.90
3275;DHT22;1649;53.672;10.064;2022-08-05T11:50:51;16.90;99.90
3275;DHT22;1649;53.672;10.064;2022-08-05T11:53:17;16.90;99.90
3275;DHT22;1649;53.672;10.064;2022-08-05T11:55:58;16.90;99.90
3275;DHT22;1649;53.672;10.064;2022-08-05T11:58:44;17.00;99.90
3275;DHT22;1649;53.672;10.064;2022-08-05T12:01:19;17.00;99.90
3275;DHT22;1649;53.672;10.064;2022-08-05T12:03:52;17.00;99.90
3275;DHT22;1649;53.672;10.064;2022-08-05T12:06:23;17.10;99.90
3275;DHT22;1649;53.672;10.064;2022-08-05T12:08:54;17.20;99.90
3275;DHT22;1649;53.672;10.064;2022-08-05T12:11:28;17.30;99.90
3275;DHT22;1649;53.672;10.064;2022-08-05T12:14:05;17.30;99.90
3275;DHT22;1649;53.672;10.064;2022-08-05T12:16:32;17.40;99.90
3275;DHT22;1649;53.672;10.064;2022-08-05T12:18:58;17.50;99.90
3275;DHT22;1649;53.672;10.064;2022-08-05T12:21:30;17.50;99.90
3275;DHT22;1649;53.672;10.064;2022-08-05T12:24:07;17.60;99.90
3275;DHT22;1649;53.672;10.064;2022-08-05T12:26:44;17.60;99.90
3275;DHT22;1649;53.672;10.064;2022-08-05T12:29:24;17.50;99.90
3275;DHT22;1649;53.672;10.064;2022-08-05T12:31:58;17.60;99.90
3275;DHT22;1649;53.672;10.064;2022-08-05T12:34:27;17.70;99.90
3275;DHT22;1649;53.672;10.064;2022-08-05T12:36:57;17.80;99.90
3275;DHT22;1649;53.672;10.064;2022-08-05T12:39:24;18.00;99.90
3275;DHT22;1649;53.672;10.064;2022-08-05T12:41:50;17.90;99.90
3275;DHT22;1649;53.672;10.064;2022-08-05T12:44:21;18.00;99.90
3275;DHT22;1649;53.672;10.064;2022-08-05T12:46:51;18.30;99.90
3275;DHT22;1649;53.672;10.064;2022-08-05T12:49:17;18.40;99.90
3275;DHT22;1649;53.672;10.064;2022-08-05T12:51:47;18.30;99.90
3275;DHT22;1649;53.672;10.064;2022-08-05T12:54:25;18.50;99.90
3275;DHT22;1649;53.672;10.064;2022-08-05T12:56:55;18.60;99.90
3275;DHT22;1649;53.672;10.064;2022-08-05T12:59:22;18.60;99.90
3275;DHT22;1649;53.672;10.064;2022-08-05T13:01:59;18.70;99.90
3275;DHT22;1649;53.672;10.064;2022-08-05T13:04:36;19.00;99.90
3275;DHT22;1649;53.672;10.064;2022-08-05T13:07:07;19.40;99.90
3275;DHT22;1649;53.672;10.064;2022-08-05T13:09:37;19.70;99.90
3275;DHT22;1649;53.672;10.064;2022-08-05T13:12:09;19.90;99.90
3275;DHT22;1649;53.672;10.064;2022-08-05T13:14:41;20.10;99.90
3275;DHT22;1649;53.672;10.064;2022-08-05T13:17:20;20.50;99.90
3275;DHT22;1649;53.672;10.064;2022-08-05T13:22:41;20.50;99.90
3275;DHT22;1649;53.672;10.064;2022-08-05T13:25:11;20.50;99.90
3275;DHT22;1649;53.672;10.064;2022-08-05T13:27:45;20.60;99.90
3275;DHT22;1649;53.672;10.064;2022-08-05T13:30:13;20.70;99.90
3275;DHT22;1649;53.672;10.064;2022-08-05T13:32:39;20.70;99.90
3275;DHT22;1649;53.672;10.064;2022-08-05T13:35:06;20.70;99.90
3275;DHT22;1649;53.672;10.064;2022-08-05T13:37:31;20.70;99.90
3275;DHT22;1649;53.672;10.064;2022-08-05T13:39:57;20.80;99.90
3275;DHT22;1649;53.672;10.064;2022-08-05T13:42:23;20.80;99.90
3275;DHT22;1649;53.672;10.064;2022-08-05T13:44:50;20.90;99.90
3275;DHT22;1649;53.672;10.064;2022-08-05T13:47:16;20.90;99.90
3275;DHT22;1649;53.672;10.064;2022-08-05T13:49:42;21.00;99.90
3275;DHT22;1649;53.672;10.064;2022-08-05T13:52:16;21.10;99.90
3275;DHT22;1649;53.672;10.064;2022-08-05T13:54:42;21.30;99.90
3275;DHT22;1649;53.672;10.064;2022-08-05T13:57:08;21.20;99.90
3275;DHT22;1649;53.672;10.064;2022-08-05T13:59:35;21.10;99.90
3275;DHT22;1649;53.672;10.064;2022-08-05T14:02:01;21.20;99.90
3275;DHT22;1649;53.672;10.064;2022-08-05T14:04:30;21.30;99.90
3275;DHT22;1649;53.672;10.064;2022-08-05T14:07:15;21.30;99.90
3275;DHT22;1649;53.672;10.064;2022-08-05T14:09:40;21.30;99.90
3275;DHT22;1649;53.672;10.064;2022-08-05T14:12:06;21.20;99.90
3275;DHT22;1649;53.672;10.064;2022-08-05T14:14:32;21.10;99.90
3275;DHT22;1649;53.672;10.064;2022-08-05T14:16:57;21.00;99.90
3275;DHT22;1649;53.672;10.064;2022-08-05T14:19:23;21.10;99.90
3275;DHT22;1649;53.672;10.064;2022-08-05T14:21:48;21.40;99.90
3275;DHT22;1649;53.672;10.064;2022-08-05T14:24:14;21.60;99.90
3275;DHT22;1649;53.672;10.064;2022-08-05T14:26:39;21.80;99.90
3275;DHT22;1649;53.672;10.064;2022-08-05T14:29:05;21.80;99.90
3275;DHT22;1649;53.672;10.064;2022-08-05T14:31:31;21.60;99.90
3275;DHT22;1649;53.672;10.064;2022-08-05T14:33:57;21.40;99.90
3275;DHT22;1649;53.672;10.064;2022-08-05T14:36:22;21.20;99.90
3275;DHT22;1649;53.672;10.064;2022-08-05T14:38:49;21.00;99.90
3275;DHT22;1649;53.672;10.064;2022-08-05T14:41:15;20.90;99.90
3275;DHT22;1649;53.672;10.064;2022-08-05T14:43:40;20.80;99.90
3275;DHT22;1649;53.672;10.064;2022-08-05T14:46:06;20.80;99.90
3275;DHT22;1649;53.672;10.064;2022-08-05T14:48:31;20.70;99.90
3275;DHT22;1649;53.672;10.064;2022-08-05T14:50:57;20.50;99.90
3275;DHT22;1649;53.672;10.064;2022-08-05T14:53:22;20.30;99.90
3275;DHT22;1649;53.672;10.064;2022-08-05T14:55:48;20.20;99.90
3275;DHT22;1649;53.672;10.064;2022-08-05T14:58:13;20.40;99.90
3275;DHT22;1649;53.672;10.064;2022-08-05T15:00:40;20.40;99.90
3275;DHT22;1649;53.672;10.064;2022-08-05T15:03:05;20.80;99.90
3275;DHT22;1649;53.672;10.064;2022-08-05T15:05:32;21.00;99.90
3275;DHT22;1649;53.672;10.064;2022-08-05T15:07:57;21.20;99.90
3275;DHT22;1649;53.672;10.064;2022-08-05T15:10:23;21.20;99.90
3275;DHT22;1649;53.672;10.064;2022-08-05T15:12:49;21.10;99.90
3275;DHT22;1649;53.672;10.064;2022-08-05T15:15:14;21.00;99.90
3275;DHT22;1649;53.672;10.064;2022-08-05T15:17:40;21.00;99.90
3275;DHT22;1649;53.672;10.064;2022-08-05T15:20:10;21.00;99.90
3275;DHT22;1649;53.672;10.064;2022-08-05T15:22:36;20.90;99.90
3275;DHT22;1649;53.672;10.064;2022-08-05T15:25:03;20.80;99.90
3275;DHT22;1649;53.672;10.064;2022-08-05T15:27:29;20.70;99.90
3275;DHT22;1649;53.672;10.064;2022-08-05T15:29:54;20.60;99.90
3275;DHT22;1649;53.672;10.064;2022-08-05T15:32:20;20.50;99.90
3275;DHT22;1649;53.672;10.064;2022-08-05T15:34:45;20.50;99.90
3275;DHT22;1649;53.672;10.064;2022-08-05T15:37:11;20.30;99.90
3275;DHT22;1649;53.672;10.064;2022-08-05T15:39:36;20.30;99.90
3275;DHT22;1649;53.672;10.064;2022-08-05T15:42:02;20.20;99.90
3275;DHT22;1649;53.672;10.064;2022-08-05T15:44:27;20.00;99.90
3275;DHT22;1649;53.672;10.064;2022-08-05T15:46:53;19.80;99.90
3275;DHT22;1649;53.672;10.064;2022-08-05T15:49:18;19.50;99.90
3275;DHT22;1649;53.672;10.064;2022-08-05T15:51:45;19.20;99.90
3275;DHT22;1649;53.672;10.064;2022-08-05T15:54:11;18.90;99.90
3275;DHT22;1649;53.672;10.064;2022-08-05T15:56:36;18.50;99.90
3275;DHT22;1649;53.672;10.064;2022-08-05T15:59:02;18.20;99.90
3275;DHT22;1649;53.672;10.064;2022-08-05T16:01:27;18.10;99.90
3275;DHT22;1649;53.672;10.064;2022-08-05T16:03:53;18.10;99.90
3275;DHT22;1649;53.672;10.064;2022-08-05T16:06:19;18.10;99.90
3275;DHT22;1649;53.672;10.064;2022-08-05T16:08:44;18.30;99.90
3275;DHT22;1649;53.672;10.064;2022-08-05T16:11:10;18.60;99.90
3275;DHT22;1649;53.672;10.064;2022-08-05T16:13:36;18.80;99.90
3275;DHT22;1649;53.672;10.064;2022-08-05T16:16:02;18.80;99.90
3275;DHT22;1649;53.672;10.064;2022-08-05T16:18:28;18.80;99.90
3275;DHT22;1649;53.672;10.064;2022-08-05T16:20:54;18.80;99.90
3275;DHT22;1649;53.672;10.064;2022-08-05T16:23:19;18.80;99.90
3275;DHT22;1649;53.672;10.064;2022-08-05T16:25:45;18.70;99.90